Time;durP1;ratioP1;P1;durP2;ratioP2;P2;SDS_P1;SDS_P2;PMS_P1;PMS_P2;Temp;Humidity;BMP_temperature;BMP_pressure;BME280_temperature;BME280_humidity;BME280_pressure;Samples;Min_cycle;Max_cycle;Signal;HPM_P1;HPM_P2
2022/07/13 04:05:29;;;;;;;1.70;1.60;;;15.30;99.90;;;;;;5033209;22;20637;-65
2022/07/13 04:07:55;;;;;;;1.73;1.63;;;15.30;99.90;;;;;;5028395;28;20456;-66
2022/07/13 04:10:21;;;;;;;1.90;1.80;;;15.30;99.90;;;;;;5024754;28;20513;-68
2022/07/13 04:12:48;;;;;;;1.80;1.70;;;15.30;99.90;;;;;;5013340;28;20911;-67
2022/07/13 04:15:15;;;;;;;2.07;1.80;;;15.30;99.90;;;;;;5031653;28;20803;-68
2022/07/13 04:17:42;;;;;;;1.57;1.47;;;15.30;99.90;;;;;;5032724;28;20405;-66
2022/07/13 04:20:09;;;;;;;1.60;1.50;;;15.30;99.90;;;;;;5032903;28;20432;-68
2022/07/13 04:22:35;;;;;;;1.70;1.60;;;15.30;99.90;;;;;;5032054;28;20409;-69
2022/07/13 04:25:01;;;;;;;1.70;1.60;;;15.40;99.90;;;;;;5032482;28;20444;-68
2022/07/13 04:27:27;;;;;;;1.50;1.40;;;15.50;99.90;;;;;;5032756;28;20531;-68
2022/07/13 04:29:52;;;;;;;2.30;1.60;;;15.60;99.90;;;;;;5032846;28;20483;-68
2022/07/13 04:32:18;;;;;;;1.93;1.83;;;15.80;99.90;;;;;;5030660;28;20185;-66
2022/07/13 04:34:44;;;;;;;1.83;1.60;;;15.90;99.90;;;;;;5031528;28;20248;-67
2022/07/13 04:37:09;;;;;;;2.03;1.80;;;15.90;99.90;;;;;;5032667;28;20672;-69
2022/07/13 04:39:35;;;;;;;2.07;1.97;;;16.10;99.90;;;;;;5032813;28;20829;-67
2022/07/13 04:42:00;;;;;;;1.50;1.40;;;16.20;99.90;;;;;;5032397;28;20175;-66
2022/07/13 04:44:26;;;;;;;2.03;1.60;;;16.30;99.90;;;;;;5032336;28;20256;-71
2022/07/13 04:46:53;;;;;;;1.90;1.80;;;16.40;99.90;;;;;;5032732;28;20309;-68
2022/07/13 04:49:19;;;;;;;1.70;1.60;;;16.60;99.90;;;;;;5033379;28;20412;-68
2022/07/13 04:51:47;;;;;;;1.67;1.57;;;16.90;99.90;;;;;;5035889;28;20815;-71
2022/07/13 04:54:18;;;;;;;1.80;1.60;;;17.30;99.90;;;;;;5035710;28;20395;-67
2022/07/13 04:56:44;;;;;;;2.33;2.23;;;17.50;99.90;;;;;;5036121;28;20399;-71
2022/07/13 04:59:10;;;;;;;2.00;1.80;;;17.80;99.90;;;;;;5036110;28;20384;-66
2022/07/13 05:01:36;;;;;;;1.60;1.50;;;18.00;99.90;;;;;;5035273;28;20413;-66
2022/07/13 05:04:02;;;;;;;1.67;1.57;;;18.20;99.90;;;;;;5035492;28;20472;-72
2022/07/13 05:06:27;;;;;;;2.13;2.00;;;18.30;99.90;;;;;;5035919;28;20411;-70
2022/07/13 05:08:53;;;;;;;2.67;1.93;;;18.40;99.90;;;;;;5035882;28;20204;-68
2022/07/13 05:11:19;;;;;;;2.10;2.00;;;18.40;99.90;;;;;;5035794;28;20581;-67
2022/07/13 05:13:45;;;;;;;1.70;1.60;;;18.40;99.90;;;;;;5033841;28;20425;-70
2022/07/13 05:16:11;;;;;;;1.77;1.67;;;18.40;99.90;;;;;;5035667;28;20199;-68
2022/07/13 05:18:36;;;;;;;3.30;1.80;;;18.50;99.90;;;;;;5034899;28;20512;-66
2022/07/13 05:21:02;;;;;;;1.80;1.70;;;18.60;99.90;;;;;;5035395;28;20185;-65
2022/07/13 05:23:27;;;;;;;1.90;1.80;;;18.70;99.90;;;;;;5034653;28;20200;-67
2022/07/13 05:25:53;;;;;;;1.77;1.67;;;18.60;99.90;;;;;;5034055;28;20180;-63
2022/07/13 05:28:19;;;;;;;3.53;2.10;;;18.60;99.90;;;;;;5034024;28;20194;-63
2022/07/13 05:30:45;;;;;;;2.10;1.90;;;18.60;99.90;;;;;;5035068;28;20411;-63
2022/07/13 05:33:10;;;;;;;2.20;2.00;;;18.60;99.90;;;;;;5034218;28;20175;-64
2022/07/13 05:35:36;;;;;;;2.27;2.17;;;18.70;99.90;;;;;;5035103;28;20178;-64
2022/07/13 05:38:02;;;;;;;2.70;2.50;;;18.90;99.90;;;;;;5035473;28;20185;-63
2022/07/13 05:40:27;;;;;;;2.73;1.90;;;19.00;99.90;;;;;;5035305;28;20620;-64
2022/07/13 05:42:53;;;;;;;3.40;2.40;;;19.10;99.90;;;;;;5033114;28;20181;-64
2022/07/13 05:45:19;;;;;;;1.80;1.70;;;19.30;99.90;;;;;;5035252;28;20178;-64
2022/07/13 05:47:47;;;;;;;1.83;1.73;;;19.50;99.90;;;;;;5035060;28;20241;-64
2022/07/13 05:50:15;;;;;;;1.60;1.50;;;19.70;99.90;;;;;;5035180;28;20528;-64
2022/07/13 05:52:41;;;;;;;1.27;1.27;;;20.00;99.90;;;;;;5034444;28;20830;-64
2022/07/13 05:55:08;;;;;;;1.20;1.20;;;20.20;99.90;;;;;;5034867;28;20429;-64
2022/07/13 05:57:34;;;;;;;1.50;1.50;;;20.50;99.90;;;;;;5033923;28;20416;-64
2022/07/13 05:59:59;;;;;;;1.63;1.53;;;20.80;99.90;;;;;;5034709;28;20432;-64
2022/07/13 06:02:25;;;;;;;1.47;1.40;;;21.10;99.90;;;;;;5034454;28;20209;-63
2022/07/13 06:04:51;;;;;;;2.77;1.67;;;21.30;99.90;;;;;;5033150;28;20206;-64
2022/07/13 06:07:16;;;;;;;2.00;1.90;;;21.60;99.90;;;;;;5034362;28;20221;-64
2022/07/13 06:09:42;;;;;;;1.90;1.70;;;21.70;99.90;;;;;;5029338;28;20245;-64
2022/07/13 06:12:07;;;;;;;1.80;1.70;;;21.90;99.90;;;;;;5019624;28;20174;-65
2022/07/13 06:14:33;;;;;;;1.40;1.10;;;21.90;99.80;;;;;;5034201;28;20785;-64
2022/07/13 06:16:59;;;;;;;1.57;1.47;;;22.00;99.40;;;;;;5034347;28;20549;-64
2022/07/13 06:19:24;;;;;;;1.43;1.33;;;22.10;99.20;;;;;;5033657;28;20242;-64
2022/07/13 06:21:50;;;;;;;1.40;1.30;;;22.30;99.00;;;;;;5034327;28;20262;-64
2022/07/13 06:24:15;;;;;;;1.57;1.47;;;22.20;98.40;;;;;;5032988;28;20199;-64
2022/07/13 06:26:41;;;;;;;1.50;1.40;;;22.30;98.60;;;;;;5033477;28;20543;-64
2022/07/13 06:29:07;;;;;;;1.50;1.50;;;22.40;98.40;;;;;;5033775;28;20218;-64
2022/07/13 06:31:33;;;;;;;1.33;1.33;;;22.50;98.20;;;;;;5032014;28;20264;-64
2022/07/13 06:33:58;;;;;;;1.77;1.67;;;22.50;98.20;;;;;;5033715;28;20191;-64
2022/07/13 06:36:24;;;;;;;2.40;1.80;;;22.70;98.40;;;;;;5033625;28;20405;-64
2022/07/13 06:38:50;;;;;;;1.20;1.20;;;22.80;97.60;;;;;;5033836;28;20178;-64
2022/07/13 06:41:16;;;;;;;1.57;1.47;;;22.90;97.00;;;;;;5034025;28;20178;-64
2022/07/13 06:43:42;;;;;;;1.53;1.43;;;23.10;96.90;;;;;;5033391;28;20495;-64
2022/07/13 06:46:08;;;;;;;2.50;1.80;;;23.20;96.50;;;;;;5033625;28;20186;-64
2022/07/13 06:48:37;;;;;;;1.37;1.27;;;23.40;96.40;;;;;;5033725;28;20209;-64
2022/07/13 06:51:03;;;;;;;6.70;1.80;;;23.60;96.00;;;;;;5033955;28;20432;-64
2022/07/13 06:53:29;;;;;;;1.20;1.20;;;23.80;95.70;;;;;;5033217;28;20490;-64
2022/07/13 06:55:55;;;;;;;1.57;1.50;;;24.00;95.20;;;;;;5033652;28;20493;-64
2022/07/13 06:58:21;;;;;;;2.10;1.70;;;24.20;95.20;;;;;;5033343;28;20427;-64
2022/07/13 07:00:47;;;;;;;1.67;1.50;;;24.20;94.80;;;;;;5033521;28;20582;-64
2022/07/13 07:03:13;;;;;;;1.40;1.30;;;24.40;95.10;;;;;;5033096;28;20221;-64
2022/07/13 07:05:42;;;;;;;1.30;1.03;;;24.60;94.00;;;;;;5033429;28;20435;-66
2022/07/13 07:08:07;;;;;;;2.80;1.57;;;24.90;93.30;;;;;;5032971;28;20271;-63
2022/07/13 07:10:33;;;;;;;1.43;1.30;;;24.80;93.00;;;;;;5033510;28;20392;-64
2022/07/13 07:12:58;;;;;;;1.40;1.30;;;24.70;94.00;;;;;;5032346;28;20183;-63
2022/07/13 07:15:24;;;;;;;1.63;1.53;;;24.50;93.60;;;;;;5033593;28;20176;-65
2022/07/13 07:17:50;;;;;;;1.33;1.30;;;24.40;94.00;;;;;;5033192;28;20186;-65
2022/07/13 07:20:16;;;;;;;1.43;1.33;;;24.40;93.40;;;;;;5033295;28;20217;-64
2022/07/13 07:22:43;;;;;;;1.13;1.07;;;24.50;93.20;;;;;;5033142;28;20717;-64
2022/07/13 07:25:09;;;;;;;1.20;1.10;;;24.60;93.30;;;;;;5033074;28;20415;-65
2022/07/13 07:27:35;;;;;;;1.70;1.60;;;24.60;93.10;;;;;;5033484;28;20483;-66
2022/07/13 07:30:01;;;;;;;1.07;1.07;;;24.60;93.20;;;;;;5033051;28;20429;-64
2022/07/13 07:32:27;;;;;;;1.00;1.00;;;24.80;93.00;;;;;;5032905;28;20412;-65
2022/07/13 07:34:52;;;;;;;1.23;1.13;;;25.30;92.50;;;;;;5033287;28;20399;-66
2022/07/13 07:37:21;;;;;;;1.20;1.20;;;26.00;91.60;;;;;;5033389;28;20182;-66
2022/07/13 07:39:49;;;;;;;1.17;1.17;;;26.60;90.90;;;;;;5033168;28;20209;-66
2022/07/13 07:42:15;;;;;;;1.33;1.27;;;27.60;90.40;;;;;;5032424;28;20488;-64
2022/07/13 07:44:40;;;;;;;1.27;1.20;;;28.60;87.80;;;;;;5031959;28;20953;-67
2022/07/13 07:47:06;;;;;;;2.23;2.03;;;30.00;81.50;;;;;;5033099;28;20254;-64
2022/07/13 07:49:32;;;;;;;4.70;4.30;;;31.10;76.90;;;;;;5033180;28;20177;-65
2022/07/13 07:51:58;;;;;;;1.63;1.53;;;32.20;73.30;;;;;;5033003;28;20174;-66
2022/07/13 07:54:24;;;;;;;1.93;1.83;;;33.00;67.50;;;;;;5032661;28;21017;-65
2022/07/13 07:56:50;;;;;;;1.70;1.60;;;33.70;66.60;;;;;;5033173;28;20463;-65
2022/07/13 07:59:16;;;;;;;1.90;1.80;;;34.40;65.80;;;;;;5033003;28;20174;-64
2022/07/13 08:01:43;;;;;;;1.47;1.37;;;35.40;64.00;;;;;;5032655;28;20178;-68
2022/07/13 08:04:09;;;;;;;1.60;1.50;;;35.90;60.80;;;;;;5032518;28;20444;-67
2022/07/13 08:06:35;;;;;;;3.00;1.53;;;35.80;57.80;;;;;;5032887;28;20405;-69
2022/07/13 08:09:01;;;;;;;1.60;1.60;;;35.80;58.60;;;;;;5032663;28;20452;-66
2022/07/13 08:11:26;;;;;;;1.30;1.30;;;36.20;56.30;;;;;;5032122;28;20417;-66
2022/07/13 08:13:53;;;;;;;1.30;1.30;;;36.20;55.90;;;;;;5031894;28;20255;-67
2022/07/13 08:16:19;;;;;;;3.60;1.53;;;36.50;55.20;;;;;;5032977;28;20622;-65
2022/07/13 08:18:45;;;;;;;1.73;1.63;;;36.80;53.20;;;;;;5032874;28;20421;-68
2022/07/13 08:21:11;;;;;;;1.47;1.43;;;36.10;54.30;;;;;;5032586;28;20444;-67
2022/07/13 08:23:52;;;;;;;1.23;1.20;;;35.60;54.70;;;;;;5033733;28;20447;-65
2022/07/13 08:26:23;;;;;;;1.13;1.13;;;35.10;55.80;;;;;;5036881;28;20423;-65
2022/07/13 08:28:50;;;;;;;1.30;1.30;;;35.00;55.40;;;;;;5036700;28;20460;-65
2022/07/13 08:31:15;;;;;;;1.40;1.30;;;35.50;54.70;;;;;;5036319;28;20520;-67
2022/07/13 08:39:12;;;;;;;1.80;1.70;;;35.30;54.10;;;;;;5037003;28;20475;-68
2022/07/13 08:41:39;;;;;;;1.70;1.60;;;34.80;55.60;;;;;;5036286;28;20429;-67
2022/07/13 08:44:05;;;;;;;1.30;1.30;;;34.50;55.90;;;;;;5035927;28;20500;-65
2022/07/13 08:46:30;;;;;;;1.33;1.23;;;34.10;55.90;;;;;;5036313;28;20462;-64
2022/07/13 08:48:57;;;;;;;1.50;1.40;;;33.70;55.90;;;;;;5036568;28;20259;-66
2022/07/13 08:51:24;;;;;;;1.37;1.27;;;33.60;57.10;;;;;;5036117;28;20170;-64
2022/07/13 08:53:51;;;;;;;1.47;1.30;;;33.70;57.00;;;;;;5035824;28;20444;-65
2022/07/13 08:56:17;;;;;;;1.50;1.40;;;33.50;56.10;;;;;;5036109;28;20405;-64
2022/07/13 08:58:43;;;;;;;1.30;1.30;;;33.60;55.70;;;;;;5036173;28;20396;-67
2022/07/13 09:01:09;;;;;;;1.90;1.27;;;34.20;55.50;;;;;;5034976;28;20519;-67
2022/07/13 09:06:58;;;;;;;2.90;2.33;;;36.10;53.40;;;;;;5022567;28;20459;-68
2022/07/13 09:09:36;;;;;;;1.60;1.50;;;37.20;53.10;;;;;;5032788;28;20425;-66
2022/07/13 09:12:19;;;;;;;6.43;1.33;;;38.10;50.10;;;;;;5035056;28;20789;-70
2022/07/13 09:14:57;;;;;;;1.40;1.40;;;38.60;48.00;;;;;;5032853;28;20980;-65
2022/07/13 09:17:27;;;;;;;1.90;1.80;;;38.80;48.90;;;;;;5035648;28;20611;-65
2022/07/13 09:19:53;;;;;;;1.40;1.40;;;39.10;47.00;;;;;;5035406;28;20776;-65
2022/07/13 09:22:18;;;;;;;1.43;1.30;;;39.10;48.00;;;;;;5034862;28;20528;-65
2022/07/13 09:24:50;;;;;;;1.40;1.30;;;39.10;48.10;;;;;;5035797;28;20206;-64
2022/07/13 09:27:16;;;;;;;1.30;1.30;;;39.50;47.20;;;;;;5035358;28;20644;-65
2022/07/13 09:29:42;;;;;;;1.40;1.30;;;40.20;45.60;;;;;;5022672;28;20525;-64
2022/07/13 09:32:11;;;;;;;1.60;1.60;;;41.00;44.80;;;;;;5034557;28;20460;-66
2022/07/13 09:34:52;;;;;;;2.00;1.90;;;41.60;43.50;;;;;;5034479;28;20502;-65
2022/07/13 09:37:23;;;;;;;1.60;1.60;;;42.10;42.60;;;;;;5035351;28;20426;-66
2022/07/13 09:40:06;;;;;;;1.80;1.70;;;42.60;41.50;;;;;;5035464;28;20420;-67
2022/07/13 09:42:33;;;;;;;1.60;1.60;;;42.80;41.00;;;;;;5033915;28;20455;-67
2022/07/13 09:47:53;;;;;;;1.80;1.70;;;43.00;39.80;;;;;;5035203;28;20820;-66
2022/07/13 09:50:19;;;;;;;1.70;1.70;;;42.90;40.30;;;;;;5034723;28;20791;-67
2022/07/13 09:52:46;;;;;;;1.40;1.40;;;42.70;40.50;;;;;;5034760;28;20433;-66
2022/07/13 09:55:15;;;;;;;1.43;1.43;;;42.40;39.60;;;;;;5034620;28;20528;-66
2022/07/13 09:57:51;;;;;;;2.00;1.43;;;42.00;39.50;;;;;;5034648;28;20412;-68
2022/07/13 10:00:17;;;;;;;1.80;1.80;;;42.00;40.10;;;;;;5034841;28;20424;-67
2022/07/13 10:02:47;;;;;;;1.60;1.60;;;42.40;40.60;;;;;;5033923;28;20831;-67
2022/07/13 10:05:16;;;;;;;1.63;1.63;;;42.90;38.10;;;;;;5034578;28;20527;-69
2022/07/13 10:07:44;;;;;;;4.33;2.10;;;43.30;38.50;;;;;;5034659;28;20451;-72
2022/07/13 10:10:15;;;;;;;1.83;1.73;;;43.10;38.70;;;;;;5034625;28;20405;-69
2022/07/13 10:12:42;;;;;;;1.90;1.90;;;42.80;39.50;;;;;;5032977;28;20835;-75
2022/07/13 10:15:10;;;;;;;2.03;2.03;;;43.00;38.80;;;;;;5034055;28;20428;-67
2022/07/13 10:17:37;;;;;;;2.17;1.97;;;43.40;38.10;;;;;;5033698;28;20185;-68
2022/07/13 10:20:15;;;;;;;2.10;2.00;;;43.30;36.70;;;;;;5033992;28;20173;-69
2022/07/13 10:22:45;;;;;;;2.00;2.00;;;43.00;36.60;;;;;;5033763;28;20842;-70
2022/07/13 10:25:12;;;;;;;2.10;2.00;;;42.60;37.40;;;;;;5034459;28;20463;-76
2022/07/13 10:27:41;;;;;;;1.67;1.67;;;42.80;36.40;;;;;;5033806;28;20963;-72
2022/07/13 10:30:10;;;;;;;1.77;1.77;;;43.20;37.40;;;;;;5034110;28;20431;-71
2022/07/13 10:32:38;;;;;;;1.60;1.60;;;43.20;35.40;;;;;;5034166;28;20405;-67
2022/07/13 10:35:16;;;;;;;1.80;1.80;;;43.00;36.50;;;;;;5033538;28;20436;-67
2022/07/13 10:38:00;;;;;;;2.07;2.00;;;42.80;36.50;;;;;;5034169;28;20440;-66
2022/07/13 10:40:26;;;;;;;1.60;1.60;;;43.00;36.20;;;;;;5033968;28;20430;-66
2022/07/13 10:42:59;;;;;;;1.63;1.53;;;42.90;35.80;;;;;;5032473;28;20405;-65
2022/07/13 10:45:34;;;;;;;1.50;1.50;;;42.40;35.40;;;;;;5033188;28;20428;-66
2022/07/13 10:48:06;;;;;;;1.53;1.43;;;41.80;36.10;;;;;;5032986;28;20460;-66
2022/07/13 10:50:47;;;;;;;1.40;1.40;;;41.60;36.80;;;;;;5033726;28;20784;-66
2022/07/13 10:53:17;;;;;;;2.70;2.60;;;41.30;36.00;;;;;;5031190;28;20957;-66
2022/07/13 10:55:46;;;;;;;3.50;3.30;;;41.10;36.60;;;;;;5033722;28;20409;-66
2022/07/13 10:58:32;;;;;;;1.43;1.43;;;41.20;36.40;;;;;;5033442;28;20413;-66
2022/07/13 11:01:38;;;;;;;1.20;1.20;;;41.50;35.80;;;;;;5033296;28;20420;-66
2022/07/13 11:04:05;;;;;;;1.17;1.17;;;41.70;34.20;;;;;;5032623;28;20437;-66
2022/07/13 11:06:31;;;;;;;1.40;1.40;;;41.70;34.30;;;;;;5032916;28;20501;-66
2022/07/13 11:09:07;;;;;;;1.03;1.00;;;41.80;35.10;;;;;;5031394;28;20463;-67
2022/07/13 11:11:32;;;;;;;1.10;1.10;;;41.50;34.70;;;;;;5032795;28;20748;-69
2022/07/13 11:13:59;;;;;;;1.67;1.20;;;41.00;35.00;;;;;;5032638;28;20535;-64
2022/07/13 11:17:10;;;;;;;1.10;1.10;;;40.40;34.60;;;;;;5033362;28;20537;-70
2022/07/13 11:20:01;;;;;;;1.00;1.00;;;39.20;34.10;;;;;;5011553;28;20436;-70
2022/07/13 11:25:47;;;;;;;1.00;1.00;;;37.30;36.70;;;;;;5033321;28;20424;-67
2022/07/13 11:28:36;;;;;;;1.33;1.23;;;36.70;36.50;;;;;;5031730;28;20558;-67
2022/07/13 11:31:03;;;;;;;1.00;1.00;;;36.40;37.10;;;;;;5033236;28;20376;-68
2022/07/13 11:33:29;;;;;;;0.97;0.97;;;36.20;37.60;;;;;;5032505;28;20415;-67
2022/07/13 11:35:57;;;;;;;1.20;1.10;;;36.10;35.60;;;;;;5032995;28;20382;-66
2022/07/13 11:38:23;;;;;;;0.90;0.90;;;35.50;34.40;;;;;;5032866;28;20210;-67
2022/07/13 11:40:49;;;;;;;1.30;1.20;;;35.10;35.90;;;;;;5033002;28;20503;-67
2022/07/13 11:43:15;;;;;;;1.00;1.00;;;35.00;37.20;;;;;;5032068;28;20465;-67
2022/07/13 11:45:41;;;;;;;0.90;0.90;;;34.90;36.40;;;;;;5032721;28;20265;-67
2022/07/13 11:48:12;;;;;;;1.00;1.00;;;34.70;35.90;;;;;;5032814;28;20461;-68
2022/07/13 11:50:55;;;;;;;1.30;1.20;;;34.30;38.40;;;;;;5033094;28;20460;-68
2022/07/13 11:53:31;;;;;;;0.70;0.70;;;33.90;38.20;;;;;;5031697;28;20435;-68
2022/07/13 11:56:02;;;;;;;1.00;1.00;;;33.60;37.70;;;;;;5013273;28;20745;-69
2022/07/13 11:58:33;;;;;;;1.50;1.40;;;33.20;38.00;;;;;;5028804;28;20413;-69
2022/07/13 12:01:00;;;;;;;0.70;0.70;;;32.90;39.10;;;;;;5036698;28;20403;-69
2022/07/13 12:03:33;;;;;;;0.90;0.90;;;32.80;39.20;;;;;;5036495;28;20408;-68
2022/07/13 12:06:03;;;;;;;0.70;0.70;;;32.70;38.70;;;;;;5036818;28;20446;-67
2022/07/13 12:08:34;;;;;;;1.00;1.00;;;32.60;38.30;;;;;;5036203;28;20442;-68
2022/07/13 12:11:01;;;;;;;0.80;0.80;;;32.50;39.20;;;;;;5036339;28;20417;-69
2022/07/13 12:13:29;;;;;;;1.40;1.30;;;32.50;40.00;;;;;;5036159;28;20411;-70
2022/07/13 12:15:54;;;;;;;0.97;0.97;;;32.50;40.10;;;;;;5036188;28;20407;-72
2022/07/13 12:18:20;;;;;;;1.00;0.80;;;32.60;38.70;;;;;;5036443;28;20403;-68
2022/07/13 12:20:46;;;;;;;1.23;1.13;;;32.70;38.40;;;;;;5036157;28;20182;-67
2022/07/13 12:23:11;;;;;;;0.80;0.80;;;32.80;39.70;;;;;;5036099;28;20890;-70
2022/07/13 12:25:41;;;;;;;1.43;1.07;;;32.90;38.40;;;;;;5034725;28;20231;-67
2022/07/13 12:28:09;;;;;;;1.10;1.10;;;33.00;39.50;;;;;;5035648;28;20190;-66
2022/07/13 12:30:37;;;;;;;1.13;1.10;;;33.20;38.80;;;;;;5035886;28;20406;-67
2022/07/13 12:33:09;;;;;;;2.03;1.93;;;33.40;39.40;;;;;;5033633;28;20896;-67
2022/07/13 12:35:40;;;;;;;3.30;1.57;;;33.60;38.40;;;;;;5014605;28;20439;-65
2022/07/13 12:38:14;;;;;;;2.60;1.70;;;33.80;39.10;;;;;;5014647;28;20880;-66
2022/07/13 12:40:51;;;;;;;1.23;1.00;;;34.00;40.30;;;;;;5025587;28;20399;-72
2022/07/13 12:43:19;;;;;;;0.70;0.70;;;34.30;39.80;;;;;;5032317;28;20423;-65
2022/07/13 12:45:53;;;;;;;1.00;1.00;;;34.50;37.80;;;;;;5033120;28;20431;-69
2022/07/13 12:48:23;;;;;;;1.10;1.10;;;34.70;39.10;;;;;;5035174;28;20783;-74
2022/07/13 12:51:00;;;;;;;1.20;1.20;;;35.00;38.90;;;;;;5035458;28;20482;-72
2022/07/13 12:53:53;;;;;;;1.27;1.10;;;35.20;38.20;;;;;;5034797;28;20406;-66
2022/07/13 12:56:21;;;;;;;1.17;1.00;;;35.20;39.20;;;;;;5036052;28;20398;-68
2022/07/13 12:58:50;;;;;;;1.37;0.93;;;35.20;37.50;;;;;;5035378;28;20904;-70
2022/07/13 13:01:35;;;;;;;0.90;0.90;;;35.10;37.00;;;;;;5035216;28;20435;-69
2022/07/13 13:04:02;;;;;;;0.90;0.90;;;35.10;36.60;;;;;;5035162;28;20815;-68
2022/07/13 13:06:29;;;;;;;1.00;1.00;;;34.90;36.80;;;;;;5034589;28;20474;-69
2022/07/13 13:09:07;;;;;;;1.17;1.17;;;34.80;37.30;;;;;;5035156;28;20557;-65
2022/07/13 13:11:34;;;;;;;1.47;0.90;;;34.80;38.10;;;;;;5034445;28;20766;-67
2022/07/13 13:14:00;;;;;;;2.77;1.00;;;34.80;36.20;;;;;;5035225;28;20453;-68
2022/07/13 13:16:25;;;;;;;0.80;0.80;;;34.80;36.30;;;;;;5034606;28;20391;-68
2022/07/13 13:18:51;;;;;;;1.17;1.07;;;34.80;36.80;;;;;;5033817;28;20217;-67
2022/07/13 13:21:17;;;;;;;0.70;0.70;;;34.80;36.00;;;;;;5034834;28;20186;-65
2022/07/13 13:23:42;;;;;;;0.63;0.63;;;34.80;36.70;;;;;;5034472;28;20665;-66
2022/07/13 13:26:09;;;;;;;0.67;0.67;;;34.90;35.70;;;;;;5033398;28;20252;-72
2022/07/13 13:30:43;;;;;;;0.87;0.87;;;34.90;36.10;;;;;;5035190;28;20263;-68
2022/07/13 13:31:20;;;;;;;0.60;0.60;;;35.00;35.10;;;;;;5027969;28;20432;-69
2022/07/13 13:33:46;;;;;;;2.60;1.00;;;35.00;36.00;;;;;;5034805;28;20759;-66
2022/07/13 13:36:12;;;;;;;1.67;1.57;;;35.00;36.50;;;;;;5034910;28;20413;-66
2022/07/13 13:38:38;;;;;;;2.87;2.40;;;35.10;37.20;;;;;;5034568;28;20634;-66
2022/07/13 13:41:04;;;;;;;1.17;0.87;;;35.20;36.50;;;;;;5033865;28;20407;-67
2022/07/13 13:43:31;;;;;;;0.83;0.83;;;35.30;36.40;;;;;;5034053;28;20186;-68
2022/07/13 13:45:57;;;;;;;0.90;0.90;;;35.30;35.90;;;;;;5033631;28;20421;-72
2022/07/13 13:48:23;;;;;;;0.80;0.70;;;35.20;35.80;;;;;;5034849;28;20442;-66
2022/07/13 13:50:49;;;;;;;1.03;1.03;;;35.20;36.20;;;;;;5034390;28;20417;-69
2022/07/13 13:53:15;;;;;;;10.10;1.17;;;35.10;35.40;;;;;;5032671;28;20186;-66
2022/07/13 13:55:41;;;;;;;0.77;0.77;;;34.90;35.70;;;;;;5034067;28;20184;-72
2022/07/13 13:58:07;;;;;;;0.77;0.77;;;34.70;35.30;;;;;;5034581;28;20388;-67
2022/07/13 14:00:34;;;;;;;1.00;0.90;;;34.60;34.50;;;;;;5033368;28;20431;-65
2022/07/13 14:02:59;;;;;;;0.70;0.70;;;34.60;35.10;;;;;;5030894;28;20271;-66
2022/07/13 14:05:25;;;;;;;0.77;0.77;;;34.50;35.10;;;;;;5030909;28;20433;-72
2022/07/13 14:07:51;;;;;;;1.17;1.07;;;34.40;35.80;;;;;;5029742;28;20616;-66
2022/07/13 14:10:17;;;;;;;0.93;0.93;;;34.10;36.10;;;;;;5027454;28;20178;-66
2022/07/13 14:12:43;;;;;;;0.93;0.93;;;33.90;36.20;;;;;;5031016;28;20453;-66
2022/07/13 14:15:09;;;;;;;0.90;0.90;;;33.60;36.10;;;;;;5033644;28;20658;-66
2022/07/13 14:17:34;;;;;;;1.00;1.00;;;33.40;36.40;;;;;;5033780;28;20646;-69
2022/07/13 14:20:00;;;;;;;0.80;0.80;;;33.10;36.20;;;;;;5033965;28;20449;-66
2022/07/13 14:22:26;;;;;;;0.80;0.80;;;32.90;36.40;;;;;;5032600;28;20693;-67
2022/07/13 14:24:56;;;;;;;0.60;0.60;;;32.70;36.70;;;;;;5034098;28;20233;-66
2022/07/13 14:27:28;;;;;;;0.80;0.63;;;32.60;37.20;;;;;;5034166;28;20281;-66
2022/07/13 14:29:54;;;;;;;0.80;0.80;;;32.50;37.40;;;;;;5034112;28;20960;-66
2022/07/13 14:32:20;;;;;;;0.80;0.80;;;32.20;37.20;;;;;;5033333;28;20421;-66
2022/07/13 14:34:46;;;;;;;0.70;0.70;;;32.10;37.90;;;;;;5034098;28;20396;-66
2022/07/13 14:37:16;;;;;;;1.00;1.00;;;31.90;38.20;;;;;;5033481;28;20752;-67
2022/07/13 14:39:43;;;;;;;0.90;0.90;;;31.80;38.60;;;;;;5034016;28;20380;-67
2022/07/13 14:42:10;;;;;;;0.90;0.90;;;31.70;38.50;;;;;;5033522;28;20417;-67
2022/07/13 14:44:35;;;;;;;0.80;0.80;;;31.60;39.00;;;;;;5033594;28;20421;-66
2022/07/13 14:47:02;;;;;;;0.93;0.93;;;31.50;39.10;;;;;;5033493;28;20828;-66
2022/07/13 14:49:28;;;;;;;1.10;1.10;;;31.40;38.90;;;;;;5034002;28;20167;-72
2022/07/13 14:51:54;;;;;;;0.83;0.83;;;31.40;38.60;;;;;;5033512;28;20423;-71
2022/07/13 14:54:20;;;;;;;0.90;0.90;;;31.30;38.80;;;;;;5033374;28;20896;-72
2022/07/13 14:56:46;;;;;;;0.97;0.90;;;31.20;39.20;;;;;;5033644;28;20474;-72
2022/07/13 14:59:11;;;;;;;1.07;0.90;;;31.20;39.90;;;;;;5033552;28;20177;-73
2022/07/13 15:01:37;;;;;;;0.93;0.93;;;31.20;40.00;;;;;;5033150;28;20545;-72
2022/07/13 15:04:03;;;;;;;0.93;0.90;;;31.20;40.70;;;;;;5033060;28;20210;-73
2022/07/13 15:06:28;;;;;;;0.60;0.60;;;31.20;41.30;;;;;;5033638;28;20202;-73
2022/07/13 15:08:54;;;;;;;0.80;0.80;;;31.20;41.30;;;;;;5033359;28;20233;-72
2022/07/13 15:11:19;;;;;;;0.70;0.70;;;31.20;41.60;;;;;;5033149;28;20232;-71
2022/07/13 15:13:45;;;;;;;1.23;1.23;;;31.30;42.50;;;;;;5032339;28;20240;-71
2022/07/13 15:16:12;;;;;;;3.17;2.90;;;31.20;42.90;;;;;;5032949;28;20577;-71
2022/07/13 15:18:37;;;;;;;9.47;7.17;;;31.30;43.30;;;;;;5031335;28;20545;-69
2022/07/13 15:21:03;;;;;;;1.37;1.37;;;31.20;43.00;;;;;;5032979;28;20399;-72
2022/07/13 15:23:29;;;;;;;0.80;0.80;;;31.00;42.40;;;;;;5031558;28;20202;-71
2022/07/13 15:25:55;;;;;;;1.00;1.00;;;30.60;42.80;;;;;;5032944;28;20965;-68
2022/07/13 15:28:20;;;;;;;1.40;1.27;;;29.90;43.90;;;;;;5033174;28;20204;-69
2022/07/13 15:30:46;;;;;;;0.97;0.97;;;29.10;44.70;;;;;;5032808;28;20253;-70
2022/07/13 15:33:12;;;;;;;2.93;0.93;;;28.50;47.30;;;;;;5031194;28;20237;-70
2022/07/13 15:35:38;;;;;;;0.80;0.80;;;27.90;45.80;;;;;;5033122;28;20181;-69
2022/07/13 15:38:04;;;;;;;1.10;1.00;;;27.60;46.90;;;;;;5032556;28;20403;-70
2022/07/13 15:43:14;;;;;;;1.57;1.47;;;27.30;48.00;;;;;;5025000;28;20209;-70
2022/07/13 15:45:40;;;;;;;0.70;0.70;;;27.30;47.30;;;;;;5032515;28;20429;-70
2022/07/13 15:48:06;;;;;;;0.67;0.67;;;27.40;47.70;;;;;;5032317;28;20206;-70
2022/07/13 15:50:32;;;;;;;0.90;0.90;;;27.50;47.20;;;;;;5033254;28;20653;-69
2022/07/13 15:52:58;;;;;;;1.17;1.17;;;27.70;46.60;;;;;;5031596;28;21006;-69
2022/07/13 15:55:23;;;;;;;1.43;0.60;;;27.80;46.40;;;;;;5032565;28;20787;-68
2022/07/13 15:57:49;;;;;;;0.80;0.80;;;28.00;46.10;;;;;;5032884;28;20409;-70
2022/07/13 16:00:15;;;;;;;1.43;0.93;;;28.20;45.60;;;;;;5032348;28;20730;-70
2022/07/13 16:02:40;;;;;;;0.60;0.60;;;28.30;45.90;;;;;;5032415;28;20321;-69
2022/07/13 16:05:07;;;;;;;0.70;0.70;;;28.40;46.50;;;;;;5031907;28;20711;-70
2022/07/13 16:07:32;;;;;;;2.17;1.07;;;28.40;46.50;;;;;;5032876;28;20197;-73
2022/07/13 16:09:58;;;;;;;1.00;0.90;;;28.60;47.00;;;;;;5029644;28;20398;-69
2022/07/13 16:12:25;;;;;;;1.47;1.37;;;28.60;46.80;;;;;;5031331;28;20185;-69
2022/07/13 16:14:51;;;;;;;0.83;0.83;;;28.60;46.90;;;;;;5032804;28;20248;-69
2022/07/13 16:17:17;;;;;;;1.73;0.70;;;28.60;46.50;;;;;;5031967;28;20485;-70
2022/07/13 16:19:43;;;;;;;3.13;0.87;;;28.50;46.70;;;;;;5031407;28;20955;-69
2022/07/13 16:22:08;;;;;;;1.83;0.73;;;28.50;46.60;;;;;;5031258;28;20398;-69
2022/07/13 16:24:34;;;;;;;1.63;1.30;;;28.40;46.60;;;;;;5032255;28;20193;-69
2022/07/13 16:27:01;;;;;;;1.47;1.10;;;28.40;46.90;;;;;;5031653;28;20181;-68
2022/07/13 16:29:26;;;;;;;1.00;0.90;;;28.40;47.70;;;;;;5032498;28;20386;-70
2022/07/13 16:31:52;;;;;;;1.10;1.10;;;28.30;47.80;;;;;;5032379;28;20773;-69
2022/07/13 16:34:18;;;;;;;0.93;0.90;;;28.20;47.20;;;;;;5031637;28;20200;-71
2022/07/13 16:36:43;;;;;;;0.80;0.80;;;28.20;47.30;;;;;;5031885;28;20171;-69
2022/07/13 16:39:09;;;;;;;0.87;0.73;;;28.10;47.50;;;;;;5032012;28;20176;-70
2022/07/13 16:41:35;;;;;;;0.93;0.93;;;28.10;47.70;;;;;;5032187;28;20655;-69
2022/07/13 16:44:00;;;;;;;1.13;1.10;;;28.00;47.60;;;;;;5031153;28;20205;-69
2022/07/13 16:46:26;;;;;;;4.67;2.40;;;28.00;47.60;;;;;;5035218;28;20194;-69
2022/07/13 16:48:52;;;;;;;1.40;1.30;;;27.90;48.30;;;;;;5030057;28;20558;-68
2022/07/13 16:51:17;;;;;;;1.37;0.97;;;27.80;48.60;;;;;;5035245;28;20193;-70
2022/07/13 16:53:43;;;;;;;1.00;1.00;;;27.80;48.90;;;;;;5035515;28;20246;-70
2022/07/13 16:56:09;;;;;;;0.97;0.80;;;27.80;49.40;;;;;;5035884;28;20636;-70
2022/07/13 16:58:34;;;;;;;1.53;1.10;;;27.80;49.90;;;;;;5034632;28;20593;-67
2022/07/13 17:01:00;;;;;;;1.00;1.00;;;27.70;49.90;;;;;;5024589;28;20170;-68
2022/07/13 17:03:26;;;;;;;1.17;1.07;;;27.70;50.00;;;;;;5035576;28;20581;-70
2022/07/13 17:05:54;;;;;;;0.93;0.93;;;27.70;50.10;;;;;;5036018;28;20570;-67
2022/07/13 17:08:20;;;;;;;1.20;0.90;;;27.70;50.00;;;;;;5035506;28;20217;-66
2022/07/13 17:10:45;;;;;;;0.90;0.73;;;27.70;50.00;;;;;;5035566;28;20426;-67
2022/07/13 17:13:11;;;;;;;0.83;0.83;;;27.60;50.00;;;;;;5035445;28;20175;-66